Wellborn, Texas
Current Conditions -  °F | °C
As of 10:53 PM on Saturday 22 Nov 2014 (Local Time) from KCLL Reporting Station
Heavy Rain Heavy Rain  
Wind Chill: 59°   Ceiling: 7000
Heat Index: 59°   Visibility: 3mi
Dew Point: 58°   Wind: 5mph
Humidity: 96%   Direction: 240°WSW
Pressure: 29.77"   Gusts: NA
Location:  30.54°N, 96.3°W
Report Text: KCLL 230453Z AUTO 24004KT 3SM +RA BR SCT055 OVC070 15/14 A2977 RMK AO2 WSHFT 0347 LTG DSNT SE-W RAB0355 SLP078 P0043 T01500144 $
Loading
Personal Weather Stations






























Interactive Weather Map New forecast layout! Learn more

10-Day Weather Forecast

Advertisements
Track Severe Weather on mobile